Time;durP1;ratioP1;P1;durP2;ratioP2;P2;SDS_P1;SDS_P2;PMS_P1;PMS_P2;Temp;Humidity;BMP_temperature;BMP_pressure;BME280_temperature;BME280_humidity;BME280_pressure;Samples;Min_cycle;Max_cycle;Signal;HPM_P1;HPM_P2
2023/12/25 16:35:40;;;;;;;3.25;1.08;;;;;;;;;;6780766;19;53201;-79
2023/12/25 16:38:06;;;;;;;2.65;1.20;;;;;;;;;;7312845;19;20298;-78
2023/12/25 16:40:32;;;;;;;2.92;1.20;;;;;;;;;;7353974;19;19990;-78
2023/12/25 16:42:58;;;;;;;2.80;1.35;;;;;;;;;;7340859;19;20006;-77
2023/12/25 16:45:23;;;;;;;4.05;1.38;;;;;;;;;;7356974;19;20114;-79
2023/12/25 16:47:48;;;;;;;3.63;1.40;;;;;;;;;;7355409;19;20074;-78
2023/12/25 16:50:13;;;;;;;3.47;1.53;;;;;;;;;;7333994;19;20274;-78
2023/12/25 16:52:38;;;;;;;3.65;1.58;;;;;;;;;;7299784;19;20319;-78
2023/12/25 16:55:04;;;;;;;4.68;1.50;;;;;;;;;;7349791;19;20369;-78
2023/12/25 16:57:29;;;;;;;3.88;1.52;;;;;;;;;;7352838;19;20019;-78
2023/12/25 16:59:59;;;;;;;3.13;1.40;;;;;;;;;;7353286;19;20103;-77
2023/12/25 17:02:24;;;;;;;3.60;1.40;;;;;;;;;;7349961;19;20247;-78
2023/12/25 17:04:49;;;;;;;3.67;1.40;;;;;;;;;;7322293;19;20419;-78
2023/12/25 17:07:17;;;;;;;2.90;1.30;;;;;;;;;;7306032;19;20036;-78
2023/12/25 17:09:42;;;;;;;3.60;1.40;;;;;;;;;;7313018;19;20458;-77
2023/12/25 17:12:12;;;;;;;3.40;1.40;;;;;;;;;;7336498;19;20011;-79
2023/12/25 17:14:37;;;;;;;3.92;1.40;;;;;;;;;;7322707;19;19999;-78
2023/12/25 17:17:03;;;;;;;5.60;1.75;;;;;;;;;;7346965;19;20305;-77
2023/12/25 17:19:28;;;;;;;3.67;1.20;;;;;;;;;;7332774;19;20259;-78
2023/12/25 17:21:58;;;;;;;2.77;1.20;;;;;;;;;;7282943;19;20473;-78
2023/12/25 17:24:24;;;;;;;2.95;1.23;;;;;;;;;;7318167;19;20819;-77
2023/12/25 17:26:49;;;;;;;3.28;1.40;;;;;;;;;;7322726;19;20002;-76
2023/12/25 17:29:14;;;;;;;3.17;1.37;;;;;;;;;;7304101;19;20115;-78
2023/12/25 17:31:39;;;;;;;3.20;1.40;;;;;;;;;;7313059;19;20347;-78
2023/12/25 17:34:04;;;;;;;4.70;1.20;;;;;;;;;;7352037;19;20009;-79
2023/12/25 17:36:30;;;;;;;3.05;1.08;;;;;;;;;;7318143;19;20485;-78
2023/12/25 17:38:55;;;;;;;2.22;0.95;;;;;;;;;;7320375;19;20036;-78
2023/12/25 17:41:20;;;;;;;2.33;1.03;;;;;;;;;;7321250;19;20003;-77
2023/12/25 17:43:45;;;;;;;2.47;1.00;;;;;;;;;;7334524;19;20239;-77
2023/12/25 17:46:10;;;;;;;2.50;1.00;;;;;;;;;;7350730;19;20235;-78
2023/12/25 17:48:35;;;;;;;2.30;1.00;;;;;;;;;;7344817;19;20006;-78
2023/12/25 17:51:01;;;;;;;2.60;1.00;;;;;;;;;;7326215;19;20111;-77
2023/12/25 17:53:26;;;;;;;3.65;1.00;;;;;;;;;;7322379;19;20664;-78
2023/12/25 17:55:51;;;;;;;3.72;0.90;;;;;;;;;;7336044;19;20096;-77
2023/12/25 17:58:16;;;;;;;3.15;1.25;;;;;;;;;;7344274;19;20020;-79
2023/12/25 18:00:42;;;;;;;3.17;1.30;;;;;;;;;;7324546;19;20833;-78
2023/12/25 18:03:07;;;;;;;1.48;0.77;;;;;;;;;;7341656;19;20015;-78
2023/12/25 18:05:34;;;;;;;1.55;0.70;;;;;;;;;;7346806;19;20022;-78
2023/12/25 18:08:00;;;;;;;1.52;0.70;;;;;;;;;;7337406;19;19998;-78
2023/12/25 18:10:25;;;;;;;0.95;0.57;;;;;;;;;;7341280;19;20047;-78
2023/12/25 18:12:50;;;;;;;1.65;0.70;;;;;;;;;;7356572;19;20006;-78
2023/12/25 18:15:15;;;;;;;1.90;0.80;;;;;;;;;;7342493;19;20742;-78
2023/12/25 18:17:42;;;;;;;2.00;0.80;;;;;;;;;;7340568;19;20027;-79
2023/12/25 18:20:08;;;;;;;2.13;0.80;;;;;;;;;;7337219;19;20318;-79
2023/12/25 18:22:33;;;;;;;0.65;0.40;;;;;;;;;;7340824;19;20018;-79
2023/12/25 18:24:59;;;;;;;3.20;0.80;;;;;;;;;;7339771;19;20013;-78
2023/12/25 18:27:24;;;;;;;1.67;0.70;;;;;;;;;;7329537;19;20086;-78
2023/12/25 18:29:49;;;;;;;2.33;0.80;;;;;;;;;;7339997;19;20010;-78
2023/12/25 18:32:15;;;;;;;2.17;0.80;;;;;;;;;;7348550;19;20115;-78
2023/12/25 18:34:40;;;;;;;2.05;0.77;;;;;;;;;;7361209;19;20007;-78
2023/12/25 18:37:05;;;;;;;1.53;0.70;;;;;;;;;;7352521;19;20009;-78
2023/12/25 18:39:31;;;;;;;2.28;0.70;;;;;;;;;;7363213;19;20867;-78
2023/12/25 18:41:56;;;;;;;1.63;0.68;;;;;;;;;;7366731;19;20006;-77
2023/12/25 18:44:21;;;;;;;1.63;0.67;;;;;;;;;;7359247;19;20008;-78
2023/12/25 18:46:46;;;;;;;1.08;0.50;;;;;;;;;;7356317;19;20275;-78
2023/12/25 18:49:11;;;;;;;1.37;0.50;;;;;;;;;;7359677;19;20273;-78
2023/12/25 18:51:37;;;;;;;1.52;0.68;;;;;;;;;;7351137;19;20262;-78
2023/12/25 18:54:02;;;;;;;1.37;0.50;;;;;;;;;;7321159;19;20030;-78
2023/12/25 18:56:27;;;;;;;1.20;0.50;;;;;;;;;;7359945;19;20262;-78
2023/12/25 18:58:53;;;;;;;1.50;0.70;;;;;;;;;;7368032;19;20062;-78
2023/12/25 19:01:18;;;;;;;3.97;0.70;;;;;;;;;;7356376;19;20002;-79
2023/12/25 19:03:44;;;;;;;1.40;0.43;;;;;;;;;;7357194;19;20275;-79
2023/12/25 19:06:10;;;;;;;2.30;0.70;;;;;;;;;;7358996;19;20479;-79
2023/12/25 19:08:35;;;;;;;2.17;0.70;;;;;;;;;;7357382;19;20026;-79
2023/12/25 19:11:01;;;;;;;1.97;0.53;;;;;;;;;;7338035;19;20040;-78
2023/12/25 19:13:26;;;;;;;2.67;0.70;;;;;;;;;;7357535;19;20255;-78
2023/12/25 19:15:51;;;;;;;1.52;0.70;;;;;;;;;;7324939;19;20007;-78
2023/12/25 19:18:17;;;;;;;1.70;0.60;;;;;;;;;;7358329;19;20013;-78
2023/12/25 19:20:42;;;;;;;0.98;0.50;;;;;;;;;;7364248;19;20014;-78
2023/12/25 19:23:07;;;;;;;1.50;0.70;;;;;;;;;;7347754;19;20308;-78
2023/12/25 19:25:33;;;;;;;0.63;0.45;;;;;;;;;;7363793;19;20133;-78
2023/12/25 19:27:58;;;;;;;1.90;0.47;;;;;;;;;;7354370;19;19999;-78
2023/12/25 19:30:24;;;;;;;1.45;0.60;;;;;;;;;;7362903;19;20370;-77
2023/12/25 19:32:50;;;;;;;2.22;0.63;;;;;;;;;;7334453;19;20440;-78
2023/12/25 19:35:15;;;;;;;1.48;0.68;;;;;;;;;;7338593;19;20002;-79
2023/12/25 19:37:40;;;;;;;1.10;0.50;;;;;;;;;;7340181;19;20611;-77
2023/12/25 19:40:06;;;;;;;3.40;0.70;;;;;;;;;;7362886;19;20026;-78
2023/12/25 19:42:31;;;;;;;1.10;0.40;;;;;;;;;;7343927;19;20046;-78
2023/12/25 19:44:56;;;;;;;1.90;0.70;;;;;;;;;;7327632;19;20026;-78
2023/12/25 19:47:22;;;;;;;1.35;0.60;;;;;;;;;;7310973;19;20254;-77
2023/12/25 19:49:47;;;;;;;1.52;0.68;;;;;;;;;;7356192;19;20814;-78
2023/12/25 19:52:12;;;;;;;1.10;0.50;;;;;;;;;;7344568;19;20550;-78
2023/12/25 19:54:38;;;;;;;1.07;0.50;;;;;;;;;;7341541;19;20014;-78
2023/12/25 19:57:03;;;;;;;1.03;0.53;;;;;;;;;;7337626;19;20995;-78
2023/12/25 19:59:28;;;;;;;0.85;0.50;;;;;;;;;;7357602;19;20246;-78
2023/12/25 20:01:53;;;;;;;1.15;0.50;;;;;;;;;;7350945;19;20005;-79
2023/12/25 20:04:18;;;;;;;0.93;0.50;;;;;;;;;;7326614;19;20346;-78
2023/12/25 20:06:44;;;;;;;1.70;0.50;;;;;;;;;;7338692;19;20010;-78
2023/12/25 20:09:09;;;;;;;2.05;0.50;;;;;;;;;;7329774;19;20266;-78
2023/12/25 20:11:35;;;;;;;1.52;0.60;;;;;;;;;;7305759;19;19995;-78
2023/12/25 20:14:01;;;;;;;1.20;0.65;;;;;;;;;;7359615;19;20062;-78
2023/12/25 20:16:26;;;;;;;1.20;0.50;;;;;;;;;;7341085;19;20392;-78
2023/12/25 20:18:51;;;;;;;1.37;0.40;;;;;;;;;;7334989;19;20021;-78
2023/12/25 20:21:16;;;;;;;1.08;0.45;;;;;;;;;;7347525;19;20359;-79
2023/12/25 20:23:42;;;;;;;0.90;0.40;;;;;;;;;;7336432;19;20007;-78
2023/12/25 20:26:07;;;;;;;0.77;0.40;;;;;;;;;;7348778;19;20006;-79
2023/12/25 20:28:32;;;;;;;1.73;0.50;;;;;;;;;;7262285;19;20090;-78
2023/12/25 20:31:00;;;;;;;1.33;0.50;;;;;;;;;;7336357;19;20243;-78
2023/12/25 20:33:25;;;;;;;1.23;0.50;;;;;;;;;;7333407;19;20018;-78
2023/12/25 20:35:51;;;;;;;2.10;0.55;;;;;;;;;;7349881;19;20010;-78
2023/12/25 20:38:16;;;;;;;1.03;0.50;;;;;;;;;;7332273;19;20442;-78
2023/12/25 20:40:41;;;;;;;0.90;0.43;;;;;;;;;;7345664;19;20375;-79
2023/12/25 20:43:06;;;;;;;1.58;0.52;;;;;;;;;;7333212;19;20864;-78
2023/12/25 20:45:31;;;;;;;1.40;0.50;;;;;;;;;;7347814;19;20030;-80
2023/12/25 20:47:57;;;;;;;1.10;0.43;;;;;;;;;;7343720;19;20313;-79
2023/12/25 20:50:22;;;;;;;2.95;0.68;;;;;;;;;;7335803;19;19999;-78
2023/12/25 20:52:47;;;;;;;2.10;0.60;;;;;;;;;;7333223;19;20262;-78
2023/12/25 20:55:13;;;;;;;1.38;0.40;;;;;;;;;;7330917;19;20316;-78
2023/12/25 20:57:38;;;;;;;0.80;0.40;;;;;;;;;;7319668;19;19999;-78
2023/12/25 21:00:07;;;;;;;1.00;0.30;;;;;;;;;;7338255;19;20022;-79
2023/12/25 21:02:32;;;;;;;2.15;0.60;;;;;;;;;;7343276;19;20002;-78
2023/12/25 21:05:02;;;;;;;3.30;0.65;;;;;;;;;;7365140;19;20589;-78
2023/12/25 21:07:28;;;;;;;2.20;0.82;;;;;;;;;;7341075;19;20542;-78
2023/12/25 21:09:54;;;;;;;1.92;0.65;;;;;;;;;;7360203;19;20117;-77
2023/12/25 21:12:19;;;;;;;0.88;0.43;;;;;;;;;;7360050;19;20154;-80
2023/12/25 21:14:44;;;;;;;0.98;0.47;;;;;;;;;;7358083;19;20091;-80
2023/12/25 21:17:10;;;;;;;0.98;0.40;;;;;;;;;;7364449;19;20217;-79
2023/12/25 21:19:35;;;;;;;2.55;0.60;;;;;;;;;;7318066;19;20501;-79
2023/12/25 21:22:01;;;;;;;0.90;0.40;;;;;;;;;;7364264;19;20104;-79
2023/12/25 21:24:26;;;;;;;1.63;0.50;;;;;;;;;;7342754;19;20254;-80
2023/12/25 21:26:51;;;;;;;1.95;0.55;;;;;;;;;;7317390;19;20025;-77
2023/12/25 21:29:17;;;;;;;1.70;0.73;;;;;;;;;;7361018;19;20026;-78
2023/12/25 21:31:43;;;;;;;1.85;0.60;;;;;;;;;;7352327;19;20537;-80
2023/12/25 21:34:08;;;;;;;1.58;0.50;;;;;;;;;;7343308;19;20006;-79
2023/12/25 21:36:35;;;;;;;1.27;0.53;;;;;;;;;;7340646;19;20025;-79
2023/12/25 21:39:00;;;;;;;3.10;0.45;;;;;;;;;;7363592;19;20252;-79
2023/12/25 21:41:27;;;;;;;1.77;0.60;;;;;;;;;;7332019;19;20007;-79
2023/12/25 21:43:52;;;;;;;0.40;0.30;;;;;;;;;;7357396;19;20417;-79
2023/12/25 21:46:18;;;;;;;1.30;0.57;;;;;;;;;;7355795;19;20020;-79
2023/12/25 21:48:43;;;;;;;2.70;0.60;;;;;;;;;;7315509;19;20005;-79
2023/12/25 21:51:08;;;;;;;1.57;0.50;;;;;;;;;;7370094;19;20372;-79
2023/12/25 21:53:33;;;;;;;0.77;0.40;;;;;;;;;;7316081;19;20802;-80
2023/12/25 21:55:58;;;;;;;1.35;0.45;;;;;;;;;;7357469;19;19993;-79
2023/12/25 21:58:23;;;;;;;1.17;0.50;;;;;;;;;;7343762;19;20112;-79
2023/12/25 22:00:49;;;;;;;0.97;0.40;;;;;;;;;;7343553;19;19994;-80
2023/12/25 22:03:14;;;;;;;1.52;0.50;;;;;;;;;;7362770;19;20788;-79
2023/12/25 22:05:39;;;;;;;0.88;0.40;;;;;;;;;;7347571;19;20010;-80
2023/12/25 22:08:07;;;;;;;0.70;0.50;;;;;;;;;;7356673;19;20006;-79
2023/12/25 22:10:34;;;;;;;1.20;0.50;;;;;;;;;;7364613;19;20004;-79
2023/12/25 22:13:00;;;;;;;1.50;0.52;;;;;;;;;;7368065;19;20014;-80
2023/12/25 22:15:25;;;;;;;1.27;0.60;;;;;;;;;;7364792;19;20010;-79
2023/12/25 22:17:50;;;;;;;2.40;0.73;;;;;;;;;;7360049;19;20021;-79
2023/12/25 22:20:15;;;;;;;0.93;0.50;;;;;;;;;;7359484;19;19991;-79
2023/12/25 22:22:40;;;;;;;1.30;0.60;;;;;;;;;;7335027;19;20596;-80
2023/12/25 22:25:07;;;;;;;0.63;0.40;;;;;;;;;;7359619;19;20247;-79
2023/12/25 22:27:32;;;;;;;4.57;0.70;;;;;;;;;;7355369;19;20271;-80
2023/12/25 22:29:57;;;;;;;1.52;0.50;;;;;;;;;;7364728;19;20645;-78
2023/12/25 22:32:22;;;;;;;1.07;0.50;;;;;;;;;;7366482;19;19990;-80
2023/12/25 22:34:48;;;;;;;1.42;0.60;;;;;;;;;;7360928;19;20594;-79
2023/12/25 22:37:13;;;;;;;1.38;0.55;;;;;;;;;;7351738;19;20265;-79
2023/12/25 22:39:38;;;;;;;2.57;0.70;;;;;;;;;;7363886;19;20013;-79
2023/12/25 22:42:04;;;;;;;1.40;0.50;;;;;;;;;;7356434;19;20255;-79
2023/12/25 22:44:29;;;;;;;1.52;0.60;;;;;;;;;;7358194;19;20283;-77
2023/12/25 22:46:54;;;;;;;1.27;0.57;;;;;;;;;;7355949;19;20003;-79
2023/12/25 22:49:19;;;;;;;3.10;0.60;;;;;;;;;;7362970;19;20031;-79
2023/12/25 22:51:44;;;;;;;2.23;0.60;;;;;;;;;;7359858;19;20246;-79
2023/12/25 22:54:09;;;;;;;2.58;0.80;;;;;;;;;;7361747;19;20263;-79
2023/12/25 22:56:39;;;;;;;1.70;0.50;;;;;;;;;;7359966;19;20099;-79
2023/12/25 22:59:04;;;;;;;1.95;0.50;;;;;;;;;;7356860;19;20302;-79
2023/12/25 23:01:29;;;;;;;1.67;0.70;;;;;;;;;;7291645;19;20011;-90
2023/12/25 23:03:54;;;;;;;1.60;0.50;;;;;;;;;;7290398;19;20842;-90
2023/12/25 23:06:19;;;;;;;1.93;0.60;;;;;;;;;;7333533;19;20062;-89
2023/12/25 23:08:44;;;;;;;1.50;0.50;;;;;;;;;;7354616;19;20612;-83
2023/12/25 23:11:09;;;;;;;2.15;0.57;;;;;;;;;;7363585;19;20243;-83
2023/12/25 23:13:35;;;;;;;1.47;0.60;;;;;;;;;;7367936;19;19994;-85
2023/12/25 23:16:00;;;;;;;1.73;0.40;;;;;;;;;;7368522;19;20339;-81
2023/12/25 23:18:27;;;;;;;1.77;0.50;;;;;;;;;;7354365;19;20036;-89
2023/12/25 23:20:52;;;;;;;1.08;0.50;;;;;;;;;;7350423;19;20258;-88
2023/12/25 23:23:17;;;;;;;4.17;0.73;;;;;;;;;;7350526;19;20022;-84
2023/12/25 23:25:42;;;;;;;2.17;0.60;;;;;;;;;;7354220;19;20231;-91
2023/12/25 23:28:07;;;;;;;2.10;0.60;;;;;;;;;;7344892;19;21119;-82
2023/12/25 23:30:33;;;;;;;1.10;0.50;;;;;;;;;;7363630;19;20236;-88
2023/12/25 23:32:58;;;;;;;1.67;0.60;;;;;;;;;;7352373;19;20005;-81
2023/12/25 23:35:23;;;;;;;1.38;0.32;;;;;;;;;;7349026;19;20458;-83
2023/12/25 23:37:48;;;;;;;1.20;0.43;;;;;;;;;;7354299;19;20287;-82
2023/12/25 23:40:14;;;;;;;1.63;0.60;;;;;;;;;;7365511;19;20002;-80
2023/12/25 23:42:39;;;;;;;2.50;0.50;;;;;;;;;;7322820;19;20419;-85
2023/12/25 23:45:04;;;;;;;1.55;0.50;;;;;;;;;;7359860;19;20569;-81
2023/12/25 23:47:29;;;;;;;1.60;0.70;;;;;;;;;;7349284;19;20486;-88
2023/12/25 23:49:55;;;;;;;4.32;0.60;;;;;;;;;;7357391;19;20502;-81
2023/12/25 23:52:24;;;;;;;1.55;0.68;;;;;;;;;;7350324;19;19995;-87
2023/12/25 23:54:49;;;;;;;2.83;0.70;;;;;;;;;;7332644;19;20007;-86
2023/12/25 23:57:16;;;;;;;2.78;0.60;;;;;;;;;;7353967;19;21000;-84
2023/12/25 23:59:41;;;;;;;1.95;0.57;;;;;;;;;;7360654;19;20495;-86
